Cartter, Illinois
Current Conditions -  °F | °C
As of 4:35 AM on Wednesday 22 Oct 2014 (Local Time) from KSLO Reporting Station
Clear Clear  
Wind Chill: 42°   Ceiling: Unl
Heat Index: 45°   Visibility: 10mi
Dew Point: 42°   Wind: 5mph
Humidity: 90%   Direction: 60°ENE
Pressure: 30.24"   Gusts: NA
Location:  38.5187°N, 88.8115°W
Report Text: KSLO 220935Z AUTO 06004KT 10SM CLR 07/06 A3024 RMK AO2 T00700055
Loading
Personal Weather Stations






























Interactive Weather Map
Tropical Storm Tracking
New forecast layout! Learn more

10-Day Weather Forecast

Advertisements
Track Severe Weather on mobile